KPCZ

Waupaca Municipal Airport

Waupaca, Wisconsin, USA
METAR KPCZ 181335Z AUTO 00000KT 10SM CLR M12/M16 A3018 RMK AO2 T11181165
Observed Flight Rules
Jan-18 @ 13:35 UTC (10 minutes ago) Visual Flight Rules
Visibility Clouds
10 miles
  • Clear skies
Temperatures Readings
Current -12°C / 10°F
Dewpoint -17°C / 1°F
Humidity 67%
Altimeter 30.18" Hg
Pressure 1022.02 hPa
Elevation 252
METAR KPCZ 181335Z AUTO 00000KT 10SM CLR M12/M16 A3018 RMK AO2 T11181165
Observed Flight Rules
Jan-18 @ 13:35 UTC
(10 minutes ago)
VFR
Clouds
  • Clear skies
Temperature Dewpoint
-12°C / 10°F -17°C / 1°F
Humidity Altimeter Pressure
67% 30.18" Hg 1022.02 hPa